createdAt,value
2019-05-14T05:11:39.093Z,2.37
2019-05-14T05:21:38.686Z,3.66
2019-05-14T05:31:38.101Z,3.74
2019-05-14T05:41:38.303Z,3.76
2019-05-14T05:51:35.842Z,3.79
2019-05-14T06:01:44.922Z,3.61
2019-05-14T06:11:37.954Z,3.79
2019-05-14T06:21:36.022Z,5.09
2019-05-14T06:31:38.431Z,4.90
2019-05-14T06:41:40.143Z,5.80
2019-05-14T06:51:35.919Z,6.26
2019-05-14T07:01:38.260Z,5.96
2019-05-14T07:11:38.620Z,5.11
2019-05-14T07:21:38.195Z,6.70
2019-05-14T07:31:38.272Z,7.60
2019-05-14T07:41:34.964Z,7.54
2019-05-14T07:51:35.869Z,9.39
2019-05-14T08:01:35.752Z,8.80
2019-05-14T08:11:35.911Z,7.78
2019-05-14T08:21:38.257Z,7.85
2019-05-14T08:31:38.387Z,8.43
2019-05-14T08:41:38.134Z,5.99
2019-05-14T08:51:38.613Z,10.03
2019-05-14T09:01:38.526Z,9.40
2019-05-14T09:11:42.741Z,8.06
2019-05-14T09:21:39.441Z,8.29
2019-05-14T09:31:39.119Z,7.10
2019-05-14T09:41:35.907Z,9.07
2019-05-14T09:51:38.163Z,10.15
2019-05-14T10:01:38.192Z,8.35
2019-05-14T10:11:38.192Z,9.45
2019-05-14T10:21:38.873Z,9.10
2019-05-14T10:31:35.953Z,9.21
2019-05-14T10:41:38.498Z,8.54
2019-05-14T10:51:38.717Z,7.68
2019-05-14T11:01:35.847Z,9.87
2019-05-14T11:11:38.250Z,9.68
2019-05-14T11:21:36.011Z,11.39
2019-05-14T11:31:38.854Z,8.99
2019-05-14T11:41:38.734Z,12.65
2019-05-14T11:51:58.988Z,8.86
2019-05-14T12:01:39.043Z,9.73
2019-05-14T12:11:38.526Z,9.39
2019-05-14T12:21:35.810Z,10.31
2019-05-14T12:31:38.399Z,11.47
2019-05-14T12:41:38.106Z,6.89
2019-05-14T12:51:39.375Z,11.30
2019-05-14T13:01:36.086Z,8.16
2019-05-14T13:11:35.735Z,8.40
2019-05-14T13:21:38.739Z,9.70
2019-05-14T13:31:36.219Z,10.44
2019-05-14T13:41:35.661Z,9.91
2019-05-14T13:51:38.619Z,7.37
2019-05-14T14:01:35.891Z,10.31
2019-05-14T14:11:38.190Z,7.47
2019-05-14T14:21:35.950Z,9.53
2019-05-14T14:31:36.119Z,8.50
2019-05-14T14:41:38.447Z,7.20
2019-05-14T14:51:41.733Z,10.41
2019-05-14T15:01:39.870Z,6.80
2019-05-14T15:11:39.429Z,9.60
2019-05-14T15:21:36.575Z,7.36
2019-05-14T15:31:38.393Z,10.23
2019-05-14T15:41:39.118Z,8.15
2019-05-14T15:51:36.051Z,8.36
2019-05-14T16:01:39.593Z,7.77
2019-05-14T16:11:35.809Z,9.60
2019-05-14T16:21:38.558Z,11.10
2019-05-14T16:31:40.238Z,8.27
2019-05-14T16:41:38.836Z,7.34
2019-05-14T16:51:36.156Z,8.64
2019-05-14T17:01:35.920Z,8.07
2019-05-14T17:11:36.011Z,10.96
2019-05-14T17:21:35.997Z,9.10
2019-05-14T17:31:38.953Z,9.68
2019-05-14T17:41:36.182Z,9.11
2019-05-14T17:51:38.939Z,8.66
2019-05-14T18:01:39.070Z,9.01
2019-05-14T18:11:37.054Z,8.53
2019-05-14T18:21:39.085Z,6.17
2019-05-14T18:31:43.146Z,6.20
2019-05-14T18:41:35.903Z,6.12
2019-05-14T18:51:36.092Z,5.61
2019-05-14T19:01:35.848Z,4.68
